• Join FlightAware (Why Join?)
  • Login
  • US Flag 
11:48PM EDT


 

Airport Tracker/Info


-or-


 

Live Flight TrackerFlight Track Log ✈ CDG4711 ✈ 28-Jul-2013 ✈ ZSWY / WUS - ZGGG / CAN

Flight Track Log - Related Links

Times and Time Zones

All times are in EDT time to prevent confusion due to time zone crossing. See the CDG4711 flight status page for this flight to view local times or setup timezone preferences in your user account.

Time Position Orientation Groundspeed Altitude Reporting Facility
EDT Latitude Longitude Course Direction KTS MPH feet Rate Location/Type
10:07PM 27.1261 117.3427 226° Southwest  Level Estimated
10:08PM 27.0736 117.2831 225° Southwest  Level Estimated
10:09PM 27.0211 117.2236 225° Southwest  Level Estimated
10:10PM 26.9685 117.1642 225° Southwest  Level Estimated
10:11PM 26.9159 117.1048 225° Southwest  Level Estimated
10:12PM 26.8633 117.0455 225° Southwest  Level Estimated
10:13PM 26.8107 116.9862 225° Southwest  Level Estimated
10:14PM 26.7581 116.9270 225° Southwest  Level Estimated
10:15PM 26.7054 116.8679 225° Southwest  Level Estimated
10:16PM 26.6527 116.8087 225° Southwest  Level Estimated
10:17PM 26.5999 116.7497 225° Southwest  Level Estimated
10:18PM 26.5472 116.6907 225° Southwest  Level Estimated
10:19PM 26.4944 116.6318 225° Southwest  Level Estimated
10:20PM 26.4416 116.5729 225° Southwest  Level Estimated
10:21PM 26.3888 116.5141 225° Southwest  Level Estimated
10:22PM 26.3360 116.4553 225° Southwest  Level Estimated
10:23PM 26.2831 116.3965 225° Southwest  Level Estimated
10:24PM 26.2302 116.3379 225° Southwest  Level Estimated
10:25PM 26.1773 116.2793 225° Southwest  Level Estimated
10:26PM 26.1243 116.2207 225° Southwest  Level Estimated
10:27PM 26.0714 116.1622 225° Southwest  Level Estimated
10:28PM 26.0184 116.1037 225° Southwest  Level Estimated
10:29PM 25.9654 116.0453 225° Southwest  Level Estimated
10:30PM 25.9123 115.9870 225° Southwest  Level Estimated
10:31PM 25.8593 115.9287 225° Southwest  Level Estimated
10:32PM 25.8062 115.8704 225° Southwest  Level Estimated
10:33PM 25.7531 115.8122 225° Southwest  Level Estimated
10:34PM 25.6999 115.7541 225° Southwest  Level Estimated
10:35PM 25.6468 115.6960 225° Southwest  Level Estimated
10:36PM 25.5936 115.6379 225° Southwest  Level Estimated
10:37PM 25.5404 115.5799 225° Southwest  Level Estimated
10:38PM 25.4872 115.5220 225° Southwest  Level Estimated
10:39PM 25.4340 115.4641 224° Southwest  Level Estimated
10:40PM 25.3807 115.4063 224° Southwest  Level Estimated
10:41PM 25.3274 115.3485 224° Southwest  Level Estimated
10:41PM 25.2920 114.6400 224° Southwest 387 445 25,600  Level FlightAware
10:41PM 25.2470 114.5850 228° Southwest 385 443 25,600  Level FlightAware
10:42PM 25.2020 114.5290 228° Southwest 385 443 25,600  Level FlightAware
10:43PM 25.1540 114.4700 228° Southwest 385 443 25,600  Level FlightAware
10:44PM 25.0800 114.3790 228° Southwest 385 443 25,600  Level FlightAware
10:45PM 25.0430 114.3340 228° Southwest 385 443 25,600  Level FlightAware
10:45PM 24.9940 114.2740 228° Southwest 385 443 25,600 -1,260 Level FlightAware
10:48PM 24.8627 114.1930 209° Southwest  Level Estimated
10:49PM 24.7976 114.1528 209° Southwest  Level Estimated
10:50PM 24.7325 114.1128 209° Southwest  Level Estimated
10:51PM 24.6673 114.0727 209° Southwest  Level Estimated
10:52PM 24.6022 114.0328 209° Southwest  Level Estimated
10:53PM 24.5370 113.9928 209° Southwest  Level Estimated
10:54PM 24.4718 113.9529 209° Southwest  Level Estimated
10:54PM 24.2460 113.7140 209° Southwest 348 400 13,800  Level FlightAware
10:55PM 24.1770 113.6890 198° South 349 402 13,800 -360 Level FlightAware
10:56PM 24.1150 113.6660 199° South 348 400 13,300 -1,020 Descending FlightAware
10:57PM 24.0180 113.6290 199° South 329 379 12,100 -1,080 Descending FlightAware
10:57PM 23.9600 113.6070 199° South 327 376 11,500 -960 Descending FlightAware
10:58PM 23.8990 113.5840 199° South 320 368 10,800 -540 Descending FlightAware
10:59PM 23.8420 113.5630 199° South 320 368 10,800  Level FlightAware
10:59PM 23.7790 113.5390 199° South 320 368 10,800  Level FlightAware
11:00PM 23.7230 113.5200 197° South 320 368 10,800  Level FlightAware
11:01PM 23.6660 113.5040 194° South 313 360 10,800  Level FlightAware
11:01PM 23.6100 113.4890 194° South 294 338 10,800 -180 Level FlightAware
11:02PM 23.5580 113.4750 194° South 258 297 10,600 -540 Descending FlightAware
11:03PM 23.5140 113.4630 194° South 239 275 10,100 -960 Descending FlightAware
11:03PM 23.4880 113.4560 194° South 235 270 9,600 -1,080 Descending FlightAware
11:04PM 23.4590 113.4480 194° South 229 264 9,200 -900 Descending FlightAware
11:04PM 23.4470 113.4450 193° South 230 265 9,000 -300 Descending FlightAware
11:04PM 23.4170 113.4370 194° South 231 266 9,000 -240 Level FlightAware
11:05PM 23.3890 113.4290 195° South 220 253 8,800 -540 Descending FlightAware
11:05PM 23.3690 113.4240 193° South 213 245 8,600 -660 Descending FlightAware
11:06PM 23.3430 113.4170 194° South 197 227 8,300 -660 Descending FlightAware
11:06PM 23.3180 113.4100 194° South 192 221 8,000 -780 Descending FlightAware
11:07PM 23.2940 113.4040 193° South 189 217 7,600 -1,080 Descending FlightAware
11:07PM 23.2700 113.3980 193° South 186 214 7,000 -1,200 Descending FlightAware
11:07PM 23.2560 113.3980 180° South 183 211 6,700 -1,200 Descending FlightAware
11:08PM 23.2350 113.4000 175° South 186 214 6,200 -780 Descending FlightAware
11:08PM 23.2100 113.4020 176° South 183 211 6,000 -300 Descending FlightAware
11:08PM 23.1960 113.4030 176° South 187 215 6,000 120 Level FlightAware
11:09PM 23.1720 113.4010 184° South 185 213 6,100  Climbing FlightAware
11:09PM 23.1630 113.4000 186° South 180 207 6,000 -180 Descending FlightAware
11:10PM 23.1390 113.3960 189° South 178 205 6,000  Level FlightAware
11:10PM 23.1160 113.3890 196° South 183 211 6,000  Level FlightAware
11:10PM 23.1060 113.3810 216° Southwest 187 215 6,000 -240 Level FlightAware
11:11PM 23.0990 113.3740 223° Southwest 186 214 5,900 -900 Descending FlightAware
11:11PM 23.0920 113.3620 238° Southwest 195 224 5,600 -1,140 Descending FlightAware
11:11PM 23.0970 113.3320 280° West 203 234 5,100 -960 Descending FlightAware
11:12PM 23.1020 113.3050 281° West 204 235 4,700 -1,020 Descending FlightAware
11:12PM 23.1050 113.2900 282° West 204 235 4,400 -960 Descending FlightAware
11:12PM 23.1170 113.2630 296° West 210 242 4,000 -780 Descending FlightAware
11:13PM 23.1270 113.2570 331° Northwest 212 244 3,900 -780 Descending FlightAware
11:13PM 23.1540 113.2510 348° North 211 243 3,500 -720 Descending FlightAware
11:14PM 23.1920 113.2560 North 207 238 3,100 -360 Descending FlightAware
11:14PM 23.2170 113.2620 12° North 194 223 3,100 -300 Level FlightAware
11:15PM 23.2320 113.2670 17° North 196 226 2,900 -960 Descending FlightAware
11:15PM 23.2560 113.2730 13° North 186 214 2,400 -900 Descending FlightAware
11:15PM 23.2780 113.2790 14° North 167 192 2,100 -780 Descending FlightAware
11:16PM 23.2970 113.2840 14° North 160 184 1,700 -900 Descending FlightAware
11:16PM 23.3070 113.2870 15° North 159 183 1,500 -840 Descending FlightAware
11:19PM 23.3924 113.2988 North  Level Estimated
11:20PM 23.3924 113.2988 223° Southwest  Level Estimated
11:21PM 23.3924 113.2988 223° Southwest  Level Estimated
11:22PM 23.3924 113.2988 223° Southwest  Level Estimated
11:23PM 23.3924 113.2988 223° Southwest  Level Estimated
11:24PM 23.3924 113.2988 223° Southwest  Level Estimated
11:25PM 23.3924 113.2988 223° Southwest  Level Estimated
11:26PM 23.3924 113.2988 223° Southwest  Level Estimated
11:27PM 23.3924 113.2988 223° Southwest  Level Estimated
11:28PM 23.3924 113.2988 223° Southwest  Level Estimated